sensor_id;sensor_type;location;lat;lon;timestamp;temperature;humidity
21294;DHT22;10806;52.250;21.066;2022-08-21T00:00:51;27.10;68.40
21294;DHT22;10806;52.250;21.066;2022-08-21T00:03:17;27.10;68.40
21294;DHT22;10806;52.250;21.066;2022-08-21T00:05:46;27.10;68.40
21294;DHT22;10806;52.250;21.066;2022-08-21T00:08:12;27.10;68.50
21294;DHT22;10806;52.250;21.066;2022-08-21T00:10:40;27.10;68.50
21294;DHT22;10806;52.250;21.066;2022-08-21T00:13:06;27.10;68.50
21294;DHT22;10806;52.250;21.066;2022-08-21T00:15:33;27.10;68.50
21294;DHT22;10806;52.250;21.066;2022-08-21T00:17:59;27.10;68.50
21294;DHT22;10806;52.250;21.066;2022-08-21T00:20:26;27.10;68.60
21294;DHT22;10806;52.250;21.066;2022-08-21T00:22:52;27.10;68.70
21294;DHT22;10806;52.250;21.066;2022-08-21T00:25:18;27.10;68.70
21294;DHT22;10806;52.250;21.066;2022-08-21T00:27:45;27.10;68.70
21294;DHT22;10806;52.250;21.066;2022-08-21T00:30:13;27.10;68.80
21294;DHT22;10806;52.250;21.066;2022-08-21T00:32:40;27.10;68.80
21294;DHT22;10806;52.250;21.066;2022-08-21T00:35:12;27.10;68.80
21294;DHT22;10806;52.250;21.066;2022-08-21T00:37:39;27.10;68.80
21294;DHT22;10806;52.250;21.066;2022-08-21T00:40:09;27.10;68.90
21294;DHT22;10806;52.250;21.066;2022-08-21T00:42:35;27.10;68.80
21294;DHT22;10806;52.250;21.066;2022-08-21T00:45:01;27.10;68.80
21294;DHT22;10806;52.250;21.066;2022-08-21T00:47:27;27.10;68.80
21294;DHT22;10806;52.250;21.066;2022-08-21T00:49:53;27.10;68.80
21294;DHT22;10806;52.250;21.066;2022-08-21T00:52:26;27.10;68.80
21294;DHT22;10806;52.250;21.066;2022-08-21T00:54:52;27.10;68.90
21294;DHT22;10806;52.250;21.066;2022-08-21T00:57:34;27.10;68.80
21294;DHT22;10806;52.250;21.066;2022-08-21T01:00:03;27.10;68.80
21294;DHT22;10806;52.250;21.066;2022-08-21T01:02:30;27.10;68.90
21294;DHT22;10806;52.250;21.066;2022-08-21T01:04:55;27.10;68.90
21294;DHT22;10806;52.250;21.066;2022-08-21T01:07:21;27.10;68.90
21294;DHT22;10806;52.250;21.066;2022-08-21T01:09:47;27.10;68.80
21294;DHT22;10806;52.250;21.066;2022-08-21T01:12:14;27.10;68.90
21294;DHT22;10806;52.250;21.066;2022-08-21T01:14:41;27.10;68.90
21294;DHT22;10806;52.250;21.066;2022-08-21T01:17:10;27.10;68.90
21294;DHT22;10806;52.250;21.066;2022-08-21T01:19:36;27.10;68.80
21294;DHT22;10806;52.250;21.066;2022-08-21T01:22:02;27.10;68.80
21294;DHT22;10806;52.250;21.066;2022-08-21T01:24:28;27.10;68.80
21294;DHT22;10806;52.250;21.066;2022-08-21T01:26:54;27.10;68.80
21294;DHT22;10806;52.250;21.066;2022-08-21T01:32:15;27.10;68.80
21294;DHT22;10806;52.250;21.066;2022-08-21T01:34:44;27.10;68.80
21294;DHT22;10806;52.250;21.066;2022-08-21T01:37:11;27.10;68.80
21294;DHT22;10806;52.250;21.066;2022-08-21T01:39:37;27.10;68.70
21294;DHT22;10806;52.250;21.066;2022-08-21T01:42:03;27.10;68.80
21294;DHT22;10806;52.250;21.066;2022-08-21T01:44:29;27.10;68.70
21294;DHT22;10806;52.250;21.066;2022-08-21T01:46:54;27.10;68.80
21294;DHT22;10806;52.250;21.066;2022-08-21T01:49:20;27.10;68.70
21294;DHT22;10806;52.250;21.066;2022-08-21T01:51:46;27.10;68.70
21294;DHT22;10806;52.250;21.066;2022-08-21T01:54:12;27.10;68.70
21294;DHT22;10806;52.250;21.066;2022-08-21T01:56:44;27.10;68.60
21294;DHT22;10806;52.250;21.066;2022-08-21T01:59:11;27.10;68.70
21294;DHT22;10806;52.250;21.066;2022-08-21T02:01:37;27.10;68.60
21294;DHT22;10806;52.250;21.066;2022-08-21T02:04:05;27.00;68.50
21294;DHT22;10806;52.250;21.066;2022-08-21T02:06:31;27.00;68.60
21294;DHT22;10806;52.250;21.066;2022-08-21T02:08:56;27.10;68.50
21294;DHT22;10806;52.250;21.066;2022-08-21T02:11:22;27.00;68.50
21294;DHT22;10806;52.250;21.066;2022-08-21T02:13:47;27.00;68.50
21294;DHT22;10806;52.250;21.066;2022-08-21T02:16:13;27.10;68.50
21294;DHT22;10806;52.250;21.066;2022-08-21T02:18:39;27.00;68.40
21294;DHT22;10806;52.250;21.066;2022-08-21T02:21:05;27.00;68.40
21294;DHT22;10806;52.250;21.066;2022-08-21T02:23:31;27.00;68.40
21294;DHT22;10806;52.250;21.066;2022-08-21T02:26:02;27.00;68.40
21294;DHT22;10806;52.250;21.066;2022-08-21T02:28:28;27.00;68.40
21294;DHT22;10806;52.250;21.066;2022-08-21T02:30:55;27.00;68.40
21294;DHT22;10806;52.250;21.066;2022-08-21T02:33:21;27.00;69.10
21294;DHT22;10806;52.250;21.066;2022-08-21T02:35:47;27.00;68.40
21294;DHT22;10806;52.250;21.066;2022-08-21T02:38:17;27.00;68.40
21294;DHT22;10806;52.250;21.066;2022-08-21T02:40:46;27.00;68.40
21294;DHT22;10806;52.250;21.066;2022-08-21T02:43:12;27.00;68.40
21294;DHT22;10806;52.250;21.066;2022-08-21T02:45:38;27.00;68.40
21294;DHT22;10806;52.250;21.066;2022-08-21T02:48:07;27.00;68.40
21294;DHT22;10806;52.250;21.066;2022-08-21T02:50:40;27.00;68.20
21294;DHT22;10806;52.250;21.066;2022-08-21T02:53:08;27.00;68.20
21294;DHT22;10806;52.250;21.066;2022-08-21T02:55:35;27.00;68.30
21294;DHT22;10806;52.250;21.066;2022-08-21T02:58:02;27.00;68.20
21294;DHT22;10806;52.250;21.066;2022-08-21T03:00:29;27.00;68.20
21294;DHT22;10806;52.250;21.066;2022-08-21T03:02:56;27.00;68.20
21294;DHT22;10806;52.250;21.066;2022-08-21T03:05:23;27.00;68.20
21294;DHT22;10806;52.250;21.066;2022-08-21T03:07:49;27.00;68.20
21294;DHT22;10806;52.250;21.066;2022-08-21T03:10:15;27.00;68.20
21294;DHT22;10806;52.250;21.066;2022-08-21T03:12:41;27.00;68.20
21294;DHT22;10806;52.250;21.066;2022-08-21T03:15:11;27.00;68.20
21294;DHT22;10806;52.250;21.066;2022-08-21T03:17:37;27.00;68.10
21294;DHT22;10806;52.250;21.066;2022-08-21T03:20:05;27.00;68.10
21294;DHT22;10806;52.250;21.066;2022-08-21T03:22:31;27.00;68.20
21294;DHT22;10806;52.250;21.066;2022-08-21T03:24:57;27.00;68.20
21294;DHT22;10806;52.250;21.066;2022-08-21T03:27:24;27.00;68.20
21294;DHT22;10806;52.250;21.066;2022-08-21T03:29:49;27.00;68.10
21294;DHT22;10806;52.250;21.066;2022-08-21T03:32:15;27.00;68.20
21294;DHT22;10806;52.250;21.066;2022-08-21T03:34:41;27.00;68.20
21294;DHT22;10806;52.250;21.066;2022-08-21T03:37:07;27.00;68.20
21294;DHT22;10806;52.250;21.066;2022-08-21T03:39:34;27.00;68.10
21294;DHT22;10806;52.250;21.066;2022-08-21T03:42:00;27.00;68.20
21294;DHT22;10806;52.250;21.066;2022-08-21T03:44:26;27.00;68.20
21294;DHT22;10806;52.250;21.066;2022-08-21T03:46:56;27.00;68.10
21294;DHT22;10806;52.250;21.066;2022-08-21T03:49:22;27.00;68.10
21294;DHT22;10806;52.250;21.066;2022-08-21T03:51:48;27.00;68.20
21294;DHT22;10806;52.250;21.066;2022-08-21T03:54:14;27.00;68.10
21294;DHT22;10806;52.250;21.066;2022-08-21T03:56:39;27.00;68.10
21294;DHT22;10806;52.250;21.066;2022-08-21T03:59:05;27.00;68.10
21294;DHT22;10806;52.250;21.066;2022-08-21T04:01:31;27.00;68.10
21294;DHT22;10806;52.250;21.066;2022-08-21T04:03:57;27.00;68.00
21294;DHT22;10806;52.250;21.066;2022-08-21T04:06:23;27.00;68.00
21294;DHT22;10806;52.250;21.066;2022-08-21T04:08:48;27.00;68.10
21294;DHT22;10806;52.250;21.066;2022-08-21T04:11:14;27.00;68.10
21294;DHT22;10806;52.250;21.066;2022-08-21T04:13:40;27.00;68.00
21294;DHT22;10806;52.250;21.066;2022-08-21T04:16:06;27.00;68.10
21294;DHT22;10806;52.250;21.066;2022-08-21T04:18:32;27.00;68.10
21294;DHT22;10806;52.250;21.066;2022-08-21T04:20:58;27.00;68.10
21294;DHT22;10806;52.250;21.066;2022-08-21T04:23:25;27.00;68.10
21294;DHT22;10806;52.250;21.066;2022-08-21T04:25:53;27.00;68.10
21294;DHT22;10806;52.250;21.066;2022-08-21T04:28:19;27.00;68.00
21294;DHT22;10806;52.250;21.066;2022-08-21T04:30:45;27.00;68.00
21294;DHT22;10806;52.250;21.066;2022-08-21T04:33:10;27.00;68.00
21294;DHT22;10806;52.250;21.066;2022-08-21T04:35:36;27.00;68.00
21294;DHT22;10806;52.250;21.066;2022-08-21T04:38:02;27.00;68.00
21294;DHT22;10806;52.250;21.066;2022-08-21T04:40:27;27.00;68.00
21294;DHT22;10806;52.250;21.066;2022-08-21T04:43:05;27.00;68.00
21294;DHT22;10806;52.250;21.066;2022-08-21T04:45:37;27.00;68.00
21294;DHT22;10806;52.250;21.066;2022-08-21T04:48:06;27.00;68.00
21294;DHT22;10806;52.250;21.066;2022-08-21T04:53:27;27.00;68.00
21294;DHT22;10806;52.250;21.066;2022-08-21T04:55:54;27.00;68.00
21294;DHT22;10806;52.250;21.066;2022-08-21T04:58:24;27.00;68.00
21294;DHT22;10806;52.250;21.066;2022-08-21T05:00:55;27.00;68.00
21294;DHT22;10806;52.250;21.066;2022-08-21T05:03:21;27.00;68.00
21294;DHT22;10806;52.250;21.066;2022-08-21T05:05:48;27.00;68.00
21294;DHT22;10806;52.250;21.066;2022-08-21T05:08:16;27.00;68.00
21294;DHT22;10806;52.250;21.066;2022-08-21T05:10:44;27.00;68.00
21294;DHT22;10806;52.250;21.066;2022-08-21T05:13:11;27.00;68.00
21294;DHT22;10806;52.250;21.066;2022-08-21T05:15:38;27.00;68.00
21294;DHT22;10806;52.250;21.066;2022-08-21T05:18:05;27.00;68.00
21294;DHT22;10806;52.250;21.066;2022-08-21T05:20:32;27.00;68.00
21294;DHT22;10806;52.250;21.066;2022-08-21T05:23:00;27.00;68.00
21294;DHT22;10806;52.250;21.066;2022-08-21T05:25:26;27.00;68.00
21294;DHT22;10806;52.250;21.066;2022-08-21T05:27:52;27.00;67.90
21294;DHT22;10806;52.250;21.066;2022-08-21T05:30:19;27.00;68.00
21294;DHT22;10806;52.250;21.066;2022-08-21T05:32:46;27.00;68.70
21294;DHT22;10806;52.250;21.066;2022-08-21T05:35:12;27.00;68.00
21294;DHT22;10806;52.250;21.066;2022-08-21T05:37:38;27.00;68.00
21294;DHT22;10806;52.250;21.066;2022-08-21T05:40:05;27.00;68.00
21294;DHT22;10806;52.250;21.066;2022-08-21T05:42:32;27.00;68.00
21294;DHT22;10806;52.250;21.066;2022-08-21T05:44:58;27.00;68.70
21294;DHT22;10806;52.250;21.066;2022-08-21T05:47:23;27.00;68.00
21294;DHT22;10806;52.250;21.066;2022-08-21T05:49:49;27.00;68.00
21294;DHT22;10806;52.250;21.066;2022-08-21T05:52:19;27.00;67.90
21294;DHT22;10806;52.250;21.066;2022-08-21T05:54:45;27.00;67.90
21294;DHT22;10806;52.250;21.066;2022-08-21T05:57:10;27.00;67.80
21294;DHT22;10806;52.250;21.066;2022-08-21T05:59:36;27.00;67.90
21294;DHT22;10806;52.250;21.066;2022-08-21T06:02:03;27.00;67.80
21294;DHT22;10806;52.250;21.066;2022-08-21T06:04:28;27.00;67.80
21294;DHT22;10806;52.250;21.066;2022-08-21T06:06:54;27.00;67.90
21294;DHT22;10806;52.250;21.066;2022-08-21T06:09:20;27.00;67.90
21294;DHT22;10806;52.250;21.066;2022-08-21T06:11:45;27.00;67.80
21294;DHT22;10806;52.250;21.066;2022-08-21T06:14:14;27.00;68.00
21294;DHT22;10806;52.250;21.066;2022-08-21T06:16:40;27.00;68.00
21294;DHT22;10806;52.250;21.066;2022-08-21T06:19:05;27.00;68.00
21294;DHT22;10806;52.250;21.066;2022-08-21T06:21:31;27.00;68.00
21294;DHT22;10806;52.250;21.066;2022-08-21T06:23:56;27.00;68.00
21294;DHT22;10806;52.250;21.066;2022-08-21T06:26:22;27.00;68.00
21294;DHT22;10806;52.250;21.066;2022-08-21T06:28:49;27.00;67.90
21294;DHT22;10806;52.250;21.066;2022-08-21T06:31:20;27.00;67.80
21294;DHT22;10806;52.250;21.066;2022-08-21T06:33:46;27.00;67.80
21294;DHT22;10806;52.250;21.066;2022-08-21T06:36:12;27.00;67.70
21294;DHT22;10806;52.250;21.066;2022-08-21T06:38:38;27.00;67.70
21294;DHT22;10806;52.250;21.066;2022-08-21T06:41:04;27.00;67.60
21294;DHT22;10806;52.250;21.066;2022-08-21T06:43:30;27.00;67.60
21294;DHT22;10806;52.250;21.066;2022-08-21T06:45:56;27.00;67.60
21294;DHT22;10806;52.250;21.066;2022-08-21T06:48:22;27.00;67.50
21294;DHT22;10806;52.250;21.066;2022-08-21T06:50:48;27.00;67.50
21294;DHT22;10806;52.250;21.066;2022-08-21T06:53:16;27.00;68.30
21294;DHT22;10806;52.250;21.066;2022-08-21T06:55:42;27.00;67.40
21294;DHT22;10806;52.250;21.066;2022-08-21T06:58:08;27.10;67.40
21294;DHT22;10806;52.250;21.066;2022-08-21T07:00:35;27.10;67.40
21294;DHT22;10806;52.250;21.066;2022-08-21T07:03:03;27.10;67.40
21294;DHT22;10806;52.250;21.066;2022-08-21T07:05:30;27.10;67.50
21294;DHT22;10806;52.250;21.066;2022-08-21T07:07:55;27.10;67.40
21294;DHT22;10806;52.250;21.066;2022-08-21T07:10:23;27.10;67.40
21294;DHT22;10806;52.250;21.066;2022-08-21T07:12:52;27.10;67.50
21294;DHT22;10806;52.250;21.066;2022-08-21T07:15:19;27.10;67.40
21294;DHT22;10806;52.250;21.066;2022-08-21T07:17:45;27.10;67.40
21294;DHT22;10806;52.250;21.066;2022-08-21T07:20:11;27.10;67.40
21294;DHT22;10806;52.250;21.066;2022-08-21T07:22:37;27.10;67.40
21294;DHT22;10806;52.250;21.066;2022-08-21T07:25:04;27.10;67.50
21294;DHT22;10806;52.250;21.066;2022-08-21T07:27:30;27.10;67.50
21294;DHT22;10806;52.250;21.066;2022-08-21T07:29:57;27.10;67.40
21294;DHT22;10806;52.250;21.066;2022-08-21T07:32:22;27.10;68.60
21294;DHT22;10806;52.250;21.066;2022-08-21T07:34:48;27.10;67.80
21294;DHT22;10806;52.250;21.066;2022-08-21T07:37:14;27.20;67.90
21294;DHT22;10806;52.250;21.066;2022-08-21T07:39:39;27.20;68.00
21294;DHT22;10806;52.250;21.066;2022-08-21T07:42:05;27.10;67.80
21294;DHT22;10806;52.250;21.066;2022-08-21T07:44:30;27.20;67.90
21294;DHT22;10806;52.250;21.066;2022-08-21T07:46:56;27.20;67.80
21294;DHT22;10806;52.250;21.066;2022-08-21T07:49:22;27.10;67.70
21294;DHT22;10806;52.250;21.066;2022-08-21T07:51:47;27.20;67.80
21294;DHT22;10806;52.250;21.066;2022-08-21T07:54:13;27.20;67.80
21294;DHT22;10806;52.250;21.066;2022-08-21T07:56:38;27.20;67.80
21294;DHT22;10806;52.250;21.066;2022-08-21T07:59:04;27.20;67.90
21294;DHT22;10806;52.250;21.066;2022-08-21T08:01:29;27.20;68.00
21294;DHT22;10806;52.250;21.066;2022-08-21T08:03:56;27.10;68.00
21294;DHT22;10806;52.250;21.066;2022-08-21T08:06:22;27.20;68.10
21294;DHT22;10806;52.250;21.066;2022-08-21T08:08:48;27.20;68.10
21294;DHT22;10806;52.250;21.066;2022-08-21T08:11:14;27.20;68.40
21294;DHT22;10806;52.250;21.066;2022-08-21T08:13:48;27.20;68.00
21294;DHT22;10806;52.250;21.066;2022-08-21T08:16:14;27.20;68.00
21294;DHT22;10806;52.250;21.066;2022-08-21T08:18:40;27.20;68.00
21294;DHT22;10806;52.250;21.066;2022-08-21T08:21:08;27.20;68.00
21294;DHT22;10806;52.250;21.066;2022-08-21T08:23:34;27.20;68.00
21294;DHT22;10806;52.250;21.066;2022-08-21T08:26:00;27.20;68.00
21294;DHT22;10806;52.250;21.066;2022-08-21T08:28:28;27.20;68.00
21294;DHT22;10806;52.250;21.066;2022-08-21T08:30:54;27.20;68.00
21294;DHT22;10806;52.250;21.066;2022-08-21T08:33:20;27.20;68.10
21294;DHT22;10806;52.250;21.066;2022-08-21T08:35:48;27.20;68.10
21294;DHT22;10806;52.250;21.066;2022-08-21T08:38:15;27.20;68.10
21294;DHT22;10806;52.250;21.066;2022-08-21T08:41:13;27.20;68.10
21294;DHT22;10806;52.250;21.066;2022-08-21T08:43:40;27.20;68.20
21294;DHT22;10806;52.250;21.066;2022-08-21T08:46:14;27.20;68.20
21294;DHT22;10806;52.250;21.066;2022-08-21T08:52:00;27.20;68.50
21294;DHT22;10806;52.250;21.066;2022-08-21T08:54:33;27.20;68.70
21294;DHT22;10806;52.250;21.066;2022-08-21T08:57:02;27.20;68.90
21294;DHT22;10806;52.250;21.066;2022-08-21T08:59:43;27.30;69.20
21294;DHT22;10806;52.250;21.066;2022-08-21T09:02:11;27.30;69.20
21294;DHT22;10806;52.250;21.066;2022-08-21T09:04:38;27.30;69.30
21294;DHT22;10806;52.250;21.066;2022-08-21T09:07:12;27.30;69.50
21294;DHT22;10806;52.250;21.066;2022-08-21T09:12:39;27.30;69.50
21294;DHT22;10806;52.250;21.066;2022-08-21T09:21:03;27.30;69.50
21294;DHT22;10806;52.250;21.066;2022-08-21T09:26:22;27.30;69.50
21294;DHT22;10806;52.250;21.066;2022-08-21T09:28:53;27.30;69.50
21294;DHT22;10806;52.250;21.066;2022-08-21T09:31:31;27.30;69.70
21294;DHT22;10806;52.250;21.066;2022-08-21T09:34:03;27.30;69.90
21294;DHT22;10806;52.250;21.066;2022-08-21T09:36:49;27.30;69.60
21294;DHT22;10806;52.250;21.066;2022-08-21T09:39:30;27.30;67.60
21294;DHT22;10806;52.250;21.066;2022-08-21T09:42:02;27.30;66.70
21294;DHT22;10806;52.250;21.066;2022-08-21T09:44:32;27.30;66.90
21294;DHT22;10806;52.250;21.066;2022-08-21T09:46:59;27.30;67.40
21294;DHT22;10806;52.250;21.066;2022-08-21T09:49:38;27.30;65.80
21294;DHT22;10806;52.250;21.066;2022-08-21T09:52:15;27.30;64.90
21294;DHT22;10806;52.250;21.066;2022-08-21T09:54:45;27.30;65.60
21294;DHT22;10806;52.250;21.066;2022-08-21T09:57:20;27.30;66.20
21294;DHT22;10806;52.250;21.066;2022-08-21T10:00:30;27.30;66.30
21294;DHT22;10806;52.250;21.066;2022-08-21T10:03:09;27.30;66.90
21294;DHT22;10806;52.250;21.066;2022-08-21T10:05:35;27.30;67.30
21294;DHT22;10806;52.250;21.066;2022-08-21T10:08:02;27.30;67.40
21294;DHT22;10806;52.250;21.066;2022-08-21T10:10:32;27.30;67.70
21294;DHT22;10806;52.250;21.066;2022-08-21T10:13:07;27.30;67.90
21294;DHT22;10806;52.250;21.066;2022-08-21T10:27:02;27.30;68.00
21294;DHT22;10806;52.250;21.066;2022-08-21T10:29:57;27.30;68.00
21294;DHT22;10806;52.250;21.066;2022-08-21T10:35:24;27.30;68.00
21294;DHT22;10806;52.250;21.066;2022-08-21T10:43:59;27.30;67.90
21294;DHT22;10806;52.250;21.066;2022-08-21T10:49:30;27.20;66.80
21294;DHT22;10806;52.250;21.066;2022-08-21T10:54:53;27.20;66.90
21294;DHT22;10806;52.250;21.066;2022-08-21T10:57:45;27.30;67.10
21294;DHT22;10806;52.250;21.066;2022-08-21T11:00:20;27.30;67.40
21294;DHT22;10806;52.250;21.066;2022-08-21T11:03:07;27.30;67.70
21294;DHT22;10806;52.250;21.066;2022-08-21T11:05:44;27.30;67.80
21294;DHT22;10806;52.250;21.066;2022-08-21T11:08:41;27.30;67.20
21294;DHT22;10806;52.250;21.066;2022-08-21T11:11:38;27.30;66.70
21294;DHT22;10806;52.250;21.066;2022-08-21T11:14:04;27.20;66.70
21294;DHT22;10806;52.250;21.066;2022-08-21T11:16:45;27.20;66.50
21294;DHT22;10806;52.250;21.066;2022-08-21T11:19:33;27.20;63.90
21294;DHT22;10806;52.250;21.066;2022-08-21T11:24:42;27.20;64.40
21294;DHT22;10806;52.250;21.066;2022-08-21T11:27:35;27.20;64.40
21294;DHT22;10806;52.250;21.066;2022-08-21T11:30:03;27.20;64.60
21294;DHT22;10806;52.250;21.066;2022-08-21T11:35:42;27.20;65.20
21294;DHT22;10806;52.250;21.066;2022-08-21T11:51:25;27.30;66.80
21294;DHT22;10806;52.250;21.066;2022-08-21T11:54:23;27.30;67.00
21294;DHT22;10806;52.250;21.066;2022-08-21T11:56:57;27.20;66.90
21294;DHT22;10806;52.250;21.066;2022-08-21T11:59:34;27.30;66.60
21294;DHT22;10806;52.250;21.066;2022-08-21T12:02:01;27.30;66.70
21294;DHT22;10806;52.250;21.066;2022-08-21T12:04:32;27.30;67.10
21294;DHT22;10806;52.250;21.066;2022-08-21T12:10:17;27.30;67.20
21294;DHT22;10806;52.250;21.066;2022-08-21T12:12:46;27.30;67.10
21294;DHT22;10806;52.250;21.066;2022-08-21T12:18:04;27.30;66.10
21294;DHT22;10806;52.250;21.066;2022-08-21T12:20:42;27.30;65.40
21294;DHT22;10806;52.250;21.066;2022-08-21T12:25:38;27.20;63.70
21294;DHT22;10806;52.250;21.066;2022-08-21T12:28:10;27.20;63.70
21294;DHT22;10806;52.250;21.066;2022-08-21T12:30:39;27.20;63.60
21294;DHT22;10806;52.250;21.066;2022-08-21T12:35:44;27.20;63.60
21294;DHT22;10806;52.250;21.066;2022-08-21T12:38:18;27.20;63.60
21294;DHT22;10806;52.250;21.066;2022-08-21T12:41:06;27.20;63.40
21294;DHT22;10806;52.250;21.066;2022-08-21T12:43:41;27.20;63.20
21294;DHT22;10806;52.250;21.066;2022-08-21T12:46:20;27.20;63.20
21294;DHT22;10806;52.250;21.066;2022-08-21T12:48:57;27.20;63.10
21294;DHT22;10806;52.250;21.066;2022-08-21T12:51:33;27.20;63.00
21294;DHT22;10806;52.250;21.066;2022-08-21T12:54:01;27.20;62.80
21294;DHT22;10806;52.250;21.066;2022-08-21T12:56:33;27.20;62.80
21294;DHT22;10806;52.250;21.066;2022-08-21T12:59:07;27.20;62.60
21294;DHT22;10806;52.250;21.066;2022-08-21T13:01:39;27.20;62.60
21294;DHT22;10806;52.250;21.066;2022-08-21T13:04:16;27.20;62.60
21294;DHT22;10806;52.250;21.066;2022-08-21T13:06:45;27.20;62.60
21294;DHT22;10806;52.250;21.066;2022-08-21T13:09:15;27.20;62.40
21294;DHT22;10806;52.250;21.066;2022-08-21T13:11:44;27.20;62.50
21294;DHT22;10806;52.250;21.066;2022-08-21T13:14:43;27.20;62.40
21294;DHT22;10806;52.250;21.066;2022-08-21T13:17:10;27.20;62.00
21294;DHT22;10806;52.250;21.066;2022-08-21T13:19:37;27.20;62.20
21294;DHT22;10806;52.250;21.066;2022-08-21T13:22:03;27.20;62.10
21294;DHT22;10806;52.250;21.066;2022-08-21T13:24:34;27.20;62.00
21294;DHT22;10806;52.250;21.066;2022-08-21T13:27:00;27.10;61.80
21294;DHT22;10806;52.250;21.066;2022-08-21T13:29:31;27.20;61.90
21294;DHT22;10806;52.250;21.066;2022-08-21T13:31:59;27.20;61.90
21294;DHT22;10806;52.250;21.066;2022-08-21T13:34:30;27.20;61.70
21294;DHT22;10806;52.250;21.066;2022-08-21T13:37:02;27.20;61.70
21294;DHT22;10806;52.250;21.066;2022-08-21T13:39:28;27.20;61.80
21294;DHT22;10806;52.250;21.066;2022-08-21T13:41:56;27.20;61.50
21294;DHT22;10806;52.250;21.066;2022-08-21T13:47:02;27.20;61.30
21294;DHT22;10806;52.250;21.066;2022-08-21T13:49:34;27.20;61.20
21294;DHT22;10806;52.250;21.066;2022-08-21T13:52:01;27.20;61.10
21294;DHT22;10806;52.250;21.066;2022-08-21T13:54:37;27.20;61.00
21294;DHT22;10806;52.250;21.066;2022-08-21T13:57:03;27.10;60.90
21294;DHT22;10806;52.250;21.066;2022-08-21T13:59:35;27.20;60.90
21294;DHT22;10806;52.250;21.066;2022-08-21T14:02:11;27.20;60.90
21294;DHT22;10806;52.250;21.066;2022-08-21T14:07:29;27.20;60.90
21294;DHT22;10806;52.250;21.066;2022-08-21T14:09:56;27.20;60.80
21294;DHT22;10806;52.250;21.066;2022-08-21T14:15:10;27.20;60.70
21294;DHT22;10806;52.250;21.066;2022-08-21T14:17:39;27.20;60.70
21294;DHT22;10806;52.250;21.066;2022-08-21T14:20:30;27.20;60.80
21294;DHT22;10806;52.250;21.066;2022-08-21T14:22:53;27.20;60.60
21294;DHT22;10806;52.250;21.066;2022-08-21T14:28:14;27.20;60.40
21294;DHT22;10806;52.250;21.066;2022-08-21T14:30:42;27.20;61.20
21294;DHT22;10806;52.250;21.066;2022-08-21T14:33:10;27.20;60.50
21294;DHT22;10806;52.250;21.066;2022-08-21T14:35:36;27.20;60.40
21294;DHT22;10806;52.250;21.066;2022-08-21T14:38:11;27.20;60.50
21294;DHT22;10806;52.250;21.066;2022-08-21T14:40:36;27.20;60.50
21294;DHT22;10806;52.250;21.066;2022-08-21T14:43:02;27.10;60.20
21294;DHT22;10806;52.250;21.066;2022-08-21T14:45:31;27.10;60.20
21294;DHT22;10806;52.250;21.066;2022-08-21T14:47:58;27.20;60.20
21294;DHT22;10806;52.250;21.066;2022-08-21T14:50:24;27.10;59.90
21294;DHT22;10806;52.250;21.066;2022-08-21T14:52:50;27.20;59.80
21294;DHT22;10806;52.250;21.066;2022-08-21T14:55:17;27.20;59.90
21294;DHT22;10806;52.250;21.066;2022-08-21T14:57:48;27.20;59.90
21294;DHT22;10806;52.250;21.066;2022-08-21T15:00:17;27.20;59.80
21294;DHT22;10806;52.250;21.066;2022-08-21T15:02:45;27.20;59.80
21294;DHT22;10806;52.250;21.066;2022-08-21T15:05:12;27.20;59.70
21294;DHT22;10806;52.250;21.066;2022-08-21T15:07:38;27.10;59.60
21294;DHT22;10806;52.250;21.066;2022-08-21T15:10:06;27.10;59.60
21294;DHT22;10806;52.250;21.066;2022-08-21T15:12:32;27.10;59.40
21294;DHT22;10806;52.250;21.066;2022-08-21T15:14:57;27.10;59.40
21294;DHT22;10806;52.250;21.066;2022-08-21T15:17:23;27.10;59.30
21294;DHT22;10806;52.250;21.066;2022-08-21T15:19:49;27.10;59.40
21294;DHT22;10806;52.250;21.066;2022-08-21T15:22:14;27.10;59.30
21294;DHT22;10806;52.250;21.066;2022-08-21T15:24:40;27.10;59.40
21294;DHT22;10806;52.250;21.066;2022-08-21T15:27:08;27.10;59.20
21294;DHT22;10806;52.250;21.066;2022-08-21T15:29:34;27.10;59.10
21294;DHT22;10806;52.250;21.066;2022-08-21T15:32:03;27.10;59.30
21294;DHT22;10806;52.250;21.066;2022-08-21T15:34:40;27.20;60.80
21294;DHT22;10806;52.250;21.066;2022-08-21T15:37:05;27.10;62.80
21294;DHT22;10806;52.250;21.066;2022-08-21T15:39:34;27.20;63.00
21294;DHT22;10806;52.250;21.066;2022-08-21T15:42:00;27.20;66.30
21294;DHT22;10806;52.250;21.066;2022-08-21T15:44:27;27.20;67.50
21294;DHT22;10806;52.250;21.066;2022-08-21T15:46:53;27.20;68.20
21294;DHT22;10806;52.250;21.066;2022-08-21T15:49:19;27.20;67.20
21294;DHT22;10806;52.250;21.066;2022-08-21T15:51:45;27.20;67.00
21294;DHT22;10806;52.250;21.066;2022-08-21T15:54:10;27.20;66.20
21294;DHT22;10806;52.250;21.066;2022-08-21T15:56:38;27.20;65.70
21294;DHT22;10806;52.250;21.066;2022-08-21T15:59:06;27.10;65.60
21294;DHT22;10806;52.250;21.066;2022-08-21T16:01:34;27.10;65.70
21294;DHT22;10806;52.250;21.066;2022-08-21T16:04:00;27.10;65.70
21294;DHT22;10806;52.250;21.066;2022-08-21T16:06:26;27.10;65.40
21294;DHT22;10806;52.250;21.066;2022-08-21T16:08:52;27.10;64.90
21294;DHT22;10806;52.250;21.066;2022-08-21T16:11:18;27.10;63.00
21294;DHT22;10806;52.250;21.066;2022-08-21T16:13:45;27.10;62.10
21294;DHT22;10806;52.250;21.066;2022-08-21T16:16:14;27.10;61.00
21294;DHT22;10806;52.250;21.066;2022-08-21T16:18:40;27.10;60.20
21294;DHT22;10806;52.250;21.066;2022-08-21T16:21:06;27.10;59.80
21294;DHT22;10806;52.250;21.066;2022-08-21T16:23:33;27.10;59.60
21294;DHT22;10806;52.250;21.066;2022-08-21T16:26:00;27.10;59.10
21294;DHT22;10806;52.250;21.066;2022-08-21T16:28:26;27.10;59.20
21294;DHT22;10806;52.250;21.066;2022-08-21T16:30:51;27.10;59.10
21294;DHT22;10806;52.250;21.066;2022-08-21T16:33:41;27.10;59.30
21294;DHT22;10806;52.250;21.066;2022-08-21T16:36:08;27.10;59.90
21294;DHT22;10806;52.250;21.066;2022-08-21T16:38:34;27.10;60.90
21294;DHT22;10806;52.250;21.066;2022-08-21T16:41:03;27.10;61.70
21294;DHT22;10806;52.250;21.066;2022-08-21T16:43:29;27.10;61.80
21294;DHT22;10806;52.250;21.066;2022-08-21T16:45:56;27.10;62.30
21294;DHT22;10806;52.250;21.066;2022-08-21T16:48:23;27.10;62.50
21294;DHT22;10806;52.250;21.066;2022-08-21T16:50:49;27.10;62.90
21294;DHT22;10806;52.250;21.066;2022-08-21T16:53:15;27.10;63.00